sensor_id;sensor_type;location;lat;lon;timestamp;P1;durP1;ratioP1;P2;durP2;ratioP2
29430;SDS011;16404;49.902;10.074;2023-05-07T00:00:58;2.57;;;2.00;;
29430;SDS011;16404;49.902;10.074;2023-05-07T00:03:43;5.05;;;2.28;;
29430;SDS011;16404;49.902;10.074;2023-05-07T00:06:28;5.85;;;2.30;;
29430;SDS011;16404;49.902;10.074;2023-05-07T00:09:13;2.92;;;2.00;;
29430;SDS011;16404;49.902;10.074;2023-05-07T00:11:58;2.33;;;2.10;;
29430;SDS011;16404;49.902;10.074;2023-05-07T00:14:42;3.53;;;2.55;;
29430;SDS011;16404;49.902;10.074;2023-05-07T00:17:27;3.80;;;2.20;;
29430;SDS011;16404;49.902;10.074;2023-05-07T00:20:11;2.78;;;2.45;;
29430;SDS011;16404;49.902;10.074;2023-05-07T00:22:56;2.70;;;2.30;;
29430;SDS011;16404;49.902;10.074;2023-05-07T00:25:41;5.53;;;2.42;;
29430;SDS011;16404;49.902;10.074;2023-05-07T00:28:25;5.53;;;2.60;;
29430;SDS011;16404;49.902;10.074;2023-05-07T00:31:10;3.03;;;2.30;;
29430;SDS011;16404;49.902;10.074;2023-05-07T00:33:54;3.38;;;2.47;;
29430;SDS011;16404;49.902;10.074;2023-05-07T00:36:39;3.53;;;2.40;;
29430;SDS011;16404;49.902;10.074;2023-05-07T00:39:24;6.20;;;3.00;;
29430;SDS011;16404;49.902;10.074;2023-05-07T00:42:08;4.38;;;2.58;;
29430;SDS011;16404;49.902;10.074;2023-05-07T00:44:53;5.07;;;2.92;;
29430;SDS011;16404;49.902;10.074;2023-05-07T00:47:39;3.65;;;2.72;;
29430;SDS011;16404;49.902;10.074;2023-05-07T00:50:24;4.72;;;2.55;;
29430;SDS011;16404;49.902;10.074;2023-05-07T00:53:10;3.08;;;2.45;;
29430;SDS011;16404;49.902;10.074;2023-05-07T00:55:55;5.10;;;2.72;;
29430;SDS011;16404;49.902;10.074;2023-05-07T01:01:25;4.25;;;2.72;;
29430;SDS011;16404;49.902;10.074;2023-05-07T01:04:10;3.72;;;2.78;;
29430;SDS011;16404;49.902;10.074;2023-05-07T01:06:55;6.82;;;3.38;;
29430;SDS011;16404;49.902;10.074;2023-05-07T01:09:40;4.78;;;3.25;;
29430;SDS011;16404;49.902;10.074;2023-05-07T01:12:25;3.88;;;3.38;;
29430;SDS011;16404;49.902;10.074;2023-05-07T01:15:11;5.70;;;3.83;;
29430;SDS011;16404;49.902;10.074;2023-05-07T01:17:56;3.92;;;2.97;;
29430;SDS011;16404;49.902;10.074;2023-05-07T01:20:47;5.00;;;3.55;;
29430;SDS011;16404;49.902;10.074;2023-05-07T01:23:32;5.72;;;4.10;;
29430;SDS011;16404;49.902;10.074;2023-05-07T01:26:18;5.93;;;3.35;;
29430;SDS011;16404;49.902;10.074;2023-05-07T01:29:04;4.57;;;3.90;;
29430;SDS011;16404;49.902;10.074;2023-05-07T01:31:48;5.47;;;4.13;;
29430;SDS011;16404;49.902;10.074;2023-05-07T01:34:36;4.47;;;3.47;;
29430;SDS011;16404;49.902;10.074;2023-05-07T01:37:21;5.25;;;3.80;;
29430;SDS011;16404;49.902;10.074;2023-05-07T01:40:06;4.13;;;3.70;;
29430;SDS011;16404;49.902;10.074;2023-05-07T01:42:51;6.70;;;3.67;;
29430;SDS011;16404;49.902;10.074;2023-05-07T01:45:38;4.97;;;4.00;;
29430;SDS011;16404;49.902;10.074;2023-05-07T01:48:24;4.15;;;3.33;;
29430;SDS011;16404;49.902;10.074;2023-05-07T01:51:09;5.85;;;3.63;;
29430;SDS011;16404;49.902;10.074;2023-05-07T01:53:54;5.90;;;4.72;;
29430;SDS011;16404;49.902;10.074;2023-05-07T01:56:38;7.85;;;4.10;;
29430;SDS011;16404;49.902;10.074;2023-05-07T01:59:23;5.63;;;4.80;;
29430;SDS011;16404;49.902;10.074;2023-05-07T02:02:07;7.03;;;4.82;;
29430;SDS011;16404;49.902;10.074;2023-05-07T02:04:54;6.63;;;5.28;;
29430;SDS011;16404;49.902;10.074;2023-05-07T02:07:40;5.32;;;4.70;;
29430;SDS011;16404;49.902;10.074;2023-05-07T02:10:25;8.07;;;5.90;;
29430;SDS011;16404;49.902;10.074;2023-05-07T02:13:09;5.20;;;4.70;;
29430;SDS011;16404;49.902;10.074;2023-05-07T02:15:54;7.40;;;5.00;;
29430;SDS011;16404;49.902;10.074;2023-05-07T02:18:39;7.65;;;5.30;;
29430;SDS011;16404;49.902;10.074;2023-05-07T02:21:24;5.15;;;4.38;;
29430;SDS011;16404;49.902;10.074;2023-05-07T02:24:09;7.85;;;4.97;;
29430;SDS011;16404;49.902;10.074;2023-05-07T02:26:53;7.93;;;5.40;;
29430;SDS011;16404;49.902;10.074;2023-05-07T02:29:38;7.47;;;5.53;;
29430;SDS011;16404;49.902;10.074;2023-05-07T02:32:23;7.88;;;5.00;;
29430;SDS011;16404;49.902;10.074;2023-05-07T02:35:07;7.68;;;4.93;;
29430;SDS011;16404;49.902;10.074;2023-05-07T02:37:52;5.78;;;5.10;;
29430;SDS011;16404;49.902;10.074;2023-05-07T02:40:37;6.72;;;4.60;;
29430;SDS011;16404;49.902;10.074;2023-05-07T02:43:24;7.70;;;5.35;;
29430;SDS011;16404;49.902;10.074;2023-05-07T02:46:09;5.30;;;4.80;;
29430;SDS011;16404;49.902;10.074;2023-05-07T02:48:57;7.95;;;5.25;;
29430;SDS011;16404;49.902;10.074;2023-05-07T02:51:42;6.22;;;5.47;;
29430;SDS011;16404;49.902;10.074;2023-05-07T02:54:33;8.65;;;5.68;;
29430;SDS011;16404;49.902;10.074;2023-05-07T02:57:17;11.67;;;5.70;;
29430;SDS011;16404;49.902;10.074;2023-05-07T03:00:16;5.75;;;5.05;;
29430;SDS011;16404;49.902;10.074;2023-05-07T03:03:28;7.10;;;5.88;;
29430;SDS011;16404;49.902;10.074;2023-05-07T03:06:12;6.97;;;5.72;;
29430;SDS011;16404;49.902;10.074;2023-05-07T03:08:57;7.10;;;6.13;;
29430;SDS011;16404;49.902;10.074;2023-05-07T03:11:41;6.72;;;5.57;;
29430;SDS011;16404;49.902;10.074;2023-05-07T03:14:26;8.10;;;5.78;;
29430;SDS011;16404;49.902;10.074;2023-05-07T03:17:10;7.45;;;5.95;;
29430;SDS011;16404;49.902;10.074;2023-05-07T03:19:55;7.28;;;6.30;;
29430;SDS011;16404;49.902;10.074;2023-05-07T03:22:40;7.80;;;6.20;;
29430;SDS011;16404;49.902;10.074;2023-05-07T03:25:24;8.43;;;7.28;;
29430;SDS011;16404;49.902;10.074;2023-05-07T03:28:09;9.73;;;8.13;;
29430;SDS011;16404;49.902;10.074;2023-05-07T03:31:00;9.27;;;7.25;;
29430;SDS011;16404;49.902;10.074;2023-05-07T03:33:55;11.48;;;6.90;;
29430;SDS011;16404;49.902;10.074;2023-05-07T03:36:41;7.43;;;6.47;;
29430;SDS011;16404;49.902;10.074;2023-05-07T03:39:29;8.48;;;6.50;;
29430;SDS011;16404;49.902;10.074;2023-05-07T03:42:14;8.90;;;7.07;;
29430;SDS011;16404;49.902;10.074;2023-05-07T03:44:59;7.63;;;6.68;;
29430;SDS011;16404;49.902;10.074;2023-05-07T03:47:44;8.93;;;6.75;;
29430;SDS011;16404;49.902;10.074;2023-05-07T03:50:32;8.02;;;6.78;;
29430;SDS011;16404;49.902;10.074;2023-05-07T03:53:17;9.50;;;7.28;;
29430;SDS011;16404;49.902;10.074;2023-05-07T03:56:02;8.48;;;7.03;;
29430;SDS011;16404;49.902;10.074;2023-05-07T03:58:51;8.25;;;6.65;;
29430;SDS011;16404;49.902;10.074;2023-05-07T04:01:36;11.82;;;8.10;;
29430;SDS011;16404;49.902;10.074;2023-05-07T04:04:21;10.23;;;8.63;;
29430;SDS011;16404;49.902;10.074;2023-05-07T04:07:06;8.43;;;7.47;;
29430;SDS011;16404;49.902;10.074;2023-05-07T04:09:56;12.48;;;9.07;;
29430;SDS011;16404;49.902;10.074;2023-05-07T04:12:41;10.57;;;8.55;;
29430;SDS011;16404;49.902;10.074;2023-05-07T04:15:27;8.80;;;7.85;;
29430;SDS011;16404;49.902;10.074;2023-05-07T04:18:12;9.07;;;8.13;;
29430;SDS011;16404;49.902;10.074;2023-05-07T04:20:59;10.15;;;8.57;;
29430;SDS011;16404;49.902;10.074;2023-05-07T04:23:44;11.30;;;8.75;;
29430;SDS011;16404;49.902;10.074;2023-05-07T04:26:31;11.23;;;8.88;;
29430;SDS011;16404;49.902;10.074;2023-05-07T04:29:15;11.57;;;7.90;;
29430;SDS011;16404;49.902;10.074;2023-05-07T04:32:00;12.18;;;8.48;;
29430;SDS011;16404;49.902;10.074;2023-05-07T04:37:31;9.05;;;8.10;;
29430;SDS011;16404;49.902;10.074;2023-05-07T04:40:17;13.63;;;9.73;;
29430;SDS011;16404;49.902;10.074;2023-05-07T04:43:02;12.25;;;9.02;;
29430;SDS011;16404;49.902;10.074;2023-05-07T04:45:50;10.55;;;9.30;;
29430;SDS011;16404;49.902;10.074;2023-05-07T04:48:35;13.77;;;9.35;;
29430;SDS011;16404;49.902;10.074;2023-05-07T04:51:22;11.18;;;9.48;;
29430;SDS011;16404;49.902;10.074;2023-05-07T04:54:07;12.15;;;9.38;;
29430;SDS011;16404;49.902;10.074;2023-05-07T04:56:51;12.55;;;9.45;;
29430;SDS011;16404;49.902;10.074;2023-05-07T04:59:36;13.85;;;9.77;;
29430;SDS011;16404;49.902;10.074;2023-05-07T05:02:21;12.65;;;9.18;;
29430;SDS011;16404;49.902;10.074;2023-05-07T05:05:06;13.38;;;9.82;;
29430;SDS011;16404;49.902;10.074;2023-05-07T05:10:36;13.63;;;9.77;;
29430;SDS011;16404;49.902;10.074;2023-05-07T05:13:20;11.40;;;9.88;;
29430;SDS011;16404;49.902;10.074;2023-05-07T05:16:05;11.10;;;9.82;;
29430;SDS011;16404;49.902;10.074;2023-05-07T05:18:50;12.32;;;10.40;;
29430;SDS011;16404;49.902;10.074;2023-05-07T05:21:37;13.95;;;9.98;;
29430;SDS011;16404;49.902;10.074;2023-05-07T05:24:25;14.77;;;10.70;;
29430;SDS011;16404;49.902;10.074;2023-05-07T05:27:09;11.63;;;10.32;;
29430;SDS011;16404;49.902;10.074;2023-05-07T05:29:53;12.63;;;10.17;;
29430;SDS011;16404;49.902;10.074;2023-05-07T05:32:38;12.35;;;10.35;;
29430;SDS011;16404;49.902;10.074;2023-05-07T05:35:23;13.93;;;10.35;;
29430;SDS011;16404;49.902;10.074;2023-05-07T05:38:08;11.95;;;9.70;;
29430;SDS011;16404;49.902;10.074;2023-05-07T05:40:53;11.35;;;10.15;;
29430;SDS011;16404;49.902;10.074;2023-05-07T05:43:38;13.77;;;10.52;;
29430;SDS011;16404;49.902;10.074;2023-05-07T05:46:22;13.00;;;10.20;;
29430;SDS011;16404;49.902;10.074;2023-05-07T05:49:08;12.85;;;10.82;;
29430;SDS011;16404;49.902;10.074;2023-05-07T05:51:54;14.32;;;10.77;;
29430;SDS011;16404;49.902;10.074;2023-05-07T05:54:41;14.80;;;11.05;;
29430;SDS011;16404;49.902;10.074;2023-05-07T05:57:26;15.53;;;11.00;;
29430;SDS011;16404;49.902;10.074;2023-05-07T06:00:10;16.50;;;10.98;;
29430;SDS011;16404;49.902;10.074;2023-05-07T06:03:05;15.57;;;11.18;;
29430;SDS011;16404;49.902;10.074;2023-05-07T06:05:49;17.02;;;11.68;;
29430;SDS011;16404;49.902;10.074;2023-05-07T06:08:35;17.13;;;10.88;;
29430;SDS011;16404;49.902;10.074;2023-05-07T06:11:21;17.08;;;11.98;;
29430;SDS011;16404;49.902;10.074;2023-05-07T06:14:06;15.85;;;11.75;;
29430;SDS011;16404;49.902;10.074;2023-05-07T06:16:51;14.70;;;11.52;;
29430;SDS011;16404;49.902;10.074;2023-05-07T06:19:35;18.08;;;11.55;;
29430;SDS011;16404;49.902;10.074;2023-05-07T06:22:21;18.92;;;11.63;;
29430;SDS011;16404;49.902;10.074;2023-05-07T06:25:05;17.80;;;12.70;;
29430;SDS011;16404;49.902;10.074;2023-05-07T06:27:51;16.90;;;11.98;;
29430;SDS011;16404;49.902;10.074;2023-05-07T06:30:35;16.42;;;12.05;;
29430;SDS011;16404;49.902;10.074;2023-05-07T06:33:21;14.57;;;11.02;;
29430;SDS011;16404;49.902;10.074;2023-05-07T06:36:06;15.70;;;11.77;;
29430;SDS011;16404;49.902;10.074;2023-05-07T06:38:50;15.63;;;11.48;;
29430;SDS011;16404;49.902;10.074;2023-05-07T06:41:35;13.98;;;11.43;;
29430;SDS011;16404;49.902;10.074;2023-05-07T06:44:25;14.48;;;11.35;;
29430;SDS011;16404;49.902;10.074;2023-05-07T06:47:31;15.40;;;10.80;;
29430;SDS011;16404;49.902;10.074;2023-05-07T06:50:15;14.68;;;11.60;;
29430;SDS011;16404;49.902;10.074;2023-05-07T06:53:02;12.82;;;10.88;;
29430;SDS011;16404;49.902;10.074;2023-05-07T06:55:47;14.68;;;10.85;;
29430;SDS011;16404;49.902;10.074;2023-05-07T06:58:37;14.15;;;11.10;;
29430;SDS011;16404;49.902;10.074;2023-05-07T07:01:22;15.20;;;11.52;;
29430;SDS011;16404;49.902;10.074;2023-05-07T07:04:06;13.00;;;10.07;;
29430;SDS011;16404;49.902;10.074;2023-05-07T07:06:54;14.20;;;11.43;;
29430;SDS011;16404;49.902;10.074;2023-05-07T07:09:40;13.32;;;10.07;;
29430;SDS011;16404;49.902;10.074;2023-05-07T07:12:26;13.93;;;10.63;;
29430;SDS011;16404;49.902;10.074;2023-05-07T07:15:15;12.05;;;9.93;;
29430;SDS011;16404;49.902;10.074;2023-05-07T07:18:00;13.55;;;10.65;;
29430;SDS011;16404;49.902;10.074;2023-05-07T07:20:45;14.98;;;10.63;;
29430;SDS011;16404;49.902;10.074;2023-05-07T07:23:31;13.65;;;9.73;;
29430;SDS011;16404;49.902;10.074;2023-05-07T07:26:15;15.07;;;9.27;;
29430;SDS011;16404;49.902;10.074;2023-05-07T07:29:01;12.10;;;9.68;;
29430;SDS011;16404;49.902;10.074;2023-05-07T07:31:45;13.23;;;9.73;;
29430;SDS011;16404;49.902;10.074;2023-05-07T07:34:31;12.32;;;9.73;;
29430;SDS011;16404;49.902;10.074;2023-05-07T07:37:18;12.23;;;9.60;;
29430;SDS011;16404;49.902;10.074;2023-05-07T07:40:03;11.18;;;9.40;;
29430;SDS011;16404;49.902;10.074;2023-05-07T07:42:47;12.93;;;9.57;;
29430;SDS011;16404;49.902;10.074;2023-05-07T07:45:32;13.25;;;8.63;;
29430;SDS011;16404;49.902;10.074;2023-05-07T07:48:18;11.63;;;8.82;;
29430;SDS011;16404;49.902;10.074;2023-05-07T07:53:48;12.70;;;8.52;;
29430;SDS011;16404;49.902;10.074;2023-05-07T07:56:33;12.73;;;8.45;;
29430;SDS011;16404;49.902;10.074;2023-05-07T07:59:18;13.13;;;9.30;;
29430;SDS011;16404;49.902;10.074;2023-05-07T08:02:06;11.55;;;8.57;;
29430;SDS011;16404;49.902;10.074;2023-05-07T08:04:51;9.82;;;8.38;;
29430;SDS011;16404;49.902;10.074;2023-05-07T08:07:36;9.80;;;8.20;;
29430;SDS011;16404;49.902;10.074;2023-05-07T08:10:21;11.65;;;8.70;;
29430;SDS011;16404;49.902;10.074;2023-05-07T08:13:09;11.40;;;8.60;;
29430;SDS011;16404;49.902;10.074;2023-05-07T08:15:55;10.75;;;8.43;;
29430;SDS011;16404;49.902;10.074;2023-05-07T08:18:40;8.90;;;8.00;;
29430;SDS011;16404;49.902;10.074;2023-05-07T08:21:25;10.20;;;7.68;;
29430;SDS011;16404;49.902;10.074;2023-05-07T08:26:55;11.15;;;7.90;;
29430;SDS011;16404;49.902;10.074;2023-05-07T08:29:40;11.15;;;7.93;;
29430;SDS011;16404;49.902;10.074;2023-05-07T08:32:24;10.07;;;8.32;;
29430;SDS011;16404;49.902;10.074;2023-05-07T08:37:54;11.90;;;8.73;;
29430;SDS011;16404;49.902;10.074;2023-05-07T08:40:39;10.35;;;8.43;;
29430;SDS011;16404;49.902;10.074;2023-05-07T08:43:33;10.13;;;8.40;;
29430;SDS011;16404;49.902;10.074;2023-05-07T08:46:22;12.10;;;8.10;;
29430;SDS011;16404;49.902;10.074;2023-05-07T08:49:10;10.55;;;8.10;;
29430;SDS011;16404;49.902;10.074;2023-05-07T08:51:55;10.10;;;7.50;;
29430;SDS011;16404;49.902;10.074;2023-05-07T08:57:26;10.60;;;8.25;;
29430;SDS011;16404;49.902;10.074;2023-05-07T09:00:11;11.45;;;8.65;;
29430;SDS011;16404;49.902;10.074;2023-05-07T09:02:57;9.98;;;7.88;;
29430;SDS011;16404;49.902;10.074;2023-05-07T09:05:42;10.02;;;8.65;;
29430;SDS011;16404;49.902;10.074;2023-05-07T09:08:29;10.90;;;8.23;;
29430;SDS011;16404;49.902;10.074;2023-05-07T09:11:19;12.93;;;8.10;;
29430;SDS011;16404;49.902;10.074;2023-05-07T09:14:09;10.27;;;8.02;;
29430;SDS011;16404;49.902;10.074;2023-05-07T09:16:57;9.05;;;7.53;;
29430;SDS011;16404;49.902;10.074;2023-05-07T09:19:42;13.15;;;8.32;;
29430;SDS011;16404;49.902;10.074;2023-05-07T09:22:33;10.20;;;7.72;;
29430;SDS011;16404;49.902;10.074;2023-05-07T09:25:30;10.57;;;7.45;;
29430;SDS011;16404;49.902;10.074;2023-05-07T09:28:19;9.30;;;7.88;;
29430;SDS011;16404;49.902;10.074;2023-05-07T09:31:04;10.23;;;8.15;;
29430;SDS011;16404;49.902;10.074;2023-05-07T09:33:48;10.20;;;7.50;;
29430;SDS011;16404;49.902;10.074;2023-05-07T09:36:35;10.88;;;7.82;;
29430;SDS011;16404;49.902;10.074;2023-05-07T09:39:21;11.70;;;7.70;;
29430;SDS011;16404;49.902;10.074;2023-05-07T09:42:07;9.55;;;7.07;;
29430;SDS011;16404;49.902;10.074;2023-05-07T09:44:53;8.02;;;7.22;;
29430;SDS011;16404;49.902;10.074;2023-05-07T09:47:41;10.52;;;7.63;;
29430;SDS011;16404;49.902;10.074;2023-05-07T09:50:47;8.98;;;7.25;;
29430;SDS011;16404;49.902;10.074;2023-05-07T09:53:35;9.52;;;7.50;;
29430;SDS011;16404;49.902;10.074;2023-05-07T09:56:21;10.80;;;6.30;;
29430;SDS011;16404;49.902;10.074;2023-05-07T09:59:07;9.85;;;7.03;;
29430;SDS011;16404;49.902;10.074;2023-05-07T10:01:54;7.90;;;6.57;;
29430;SDS011;16404;49.902;10.074;2023-05-07T10:04:42;8.07;;;6.80;;
29430;SDS011;16404;49.902;10.074;2023-05-07T10:07:27;12.60;;;7.43;;
29430;SDS011;16404;49.902;10.074;2023-05-07T10:10:17;9.88;;;6.60;;
29430;SDS011;16404;49.902;10.074;2023-05-07T10:13:04;13.02;;;7.20;;
29430;SDS011;16404;49.902;10.074;2023-05-07T10:15:55;7.72;;;6.28;;
29430;SDS011;16404;49.902;10.074;2023-05-07T10:18:44;7.10;;;6.40;;
29430;SDS011;16404;49.902;10.074;2023-05-07T10:21:35;7.80;;;6.40;;
29430;SDS011;16404;49.902;10.074;2023-05-07T10:24:24;7.57;;;6.05;;
29430;SDS011;16404;49.902;10.074;2023-05-07T10:27:11;7.65;;;6.50;;
29430;SDS011;16404;49.902;10.074;2023-05-07T10:33:06;6.88;;;6.13;;
29430;SDS011;16404;49.902;10.074;2023-05-07T10:35:55;7.15;;;5.90;;
29430;SDS011;16404;49.902;10.074;2023-05-07T10:38:44;7.90;;;5.95;;
29430;SDS011;16404;49.902;10.074;2023-05-07T10:41:29;6.95;;;6.25;;
29430;SDS011;16404;49.902;10.074;2023-05-07T10:44:27;7.22;;;6.10;;
29430;SDS011;16404;49.902;10.074;2023-05-07T10:47:15;8.15;;;5.63;;
29430;SDS011;16404;49.902;10.074;2023-05-07T10:53:35;9.80;;;6.53;;
29430;SDS011;16404;49.902;10.074;2023-05-07T10:56:23;7.35;;;5.57;;
29430;SDS011;16404;49.902;10.074;2023-05-07T11:02:08;7.38;;;6.00;;
29430;SDS011;16404;49.902;10.074;2023-05-07T11:05:18;9.15;;;5.47;;
29430;SDS011;16404;49.902;10.074;2023-05-07T11:08:54;8.93;;;5.55;;
29430;SDS011;16404;49.902;10.074;2023-05-07T11:15:00;5.80;;;5.30;;
29430;SDS011;16404;49.902;10.074;2023-05-07T11:17:56;7.05;;;4.60;;
29430;SDS011;16404;49.902;10.074;2023-05-07T11:21:04;6.38;;;5.07;;
29430;SDS011;16404;49.902;10.074;2023-05-07T11:24:04;5.70;;;5.15;;
29430;SDS011;16404;49.902;10.074;2023-05-07T11:26:57;6.15;;;4.72;;
29430;SDS011;16404;49.902;10.074;2023-05-07T11:29:46;6.07;;;4.75;;
29430;SDS011;16404;49.902;10.074;2023-05-07T11:32:31;6.43;;;5.68;;
29430;SDS011;16404;49.902;10.074;2023-05-07T11:35:17;6.55;;;4.95;;
29430;SDS011;16404;49.902;10.074;2023-05-07T11:38:06;6.32;;;4.53;;
29430;SDS011;16404;49.902;10.074;2023-05-07T11:40:53;7.60;;;5.22;;
29430;SDS011;16404;49.902;10.074;2023-05-07T11:43:38;5.65;;;4.80;;
29430;SDS011;16404;49.902;10.074;2023-05-07T11:46:37;7.75;;;5.10;;
29430;SDS011;16404;49.902;10.074;2023-05-07T11:49:26;4.97;;;4.45;;
29430;SDS011;16404;49.902;10.074;2023-05-07T11:52:11;5.93;;;4.60;;
29430;SDS011;16404;49.902;10.074;2023-05-07T11:54:57;10.05;;;5.38;;
29430;SDS011;16404;49.902;10.074;2023-05-07T11:57:43;7.13;;;4.75;;
29430;SDS011;16404;49.902;10.074;2023-05-07T12:00:28;6.82;;;5.10;;
29430;SDS011;16404;49.902;10.074;2023-05-07T12:03:13;6.80;;;5.53;;
29430;SDS011;16404;49.902;10.074;2023-05-07T12:05:59;7.93;;;4.63;;
29430;SDS011;16404;49.902;10.074;2023-05-07T12:08:44;5.85;;;4.40;;
29430;SDS011;16404;49.902;10.074;2023-05-07T12:11:29;6.00;;;4.80;;
29430;SDS011;16404;49.902;10.074;2023-05-07T12:14:14;6.20;;;4.70;;
29430;SDS011;16404;49.902;10.074;2023-05-07T12:17:02;6.30;;;5.00;;
29430;SDS011;16404;49.902;10.074;2023-05-07T12:22:32;7.47;;;4.47;;
29430;SDS011;16404;49.902;10.074;2023-05-07T12:25:18;5.10;;;4.40;;
29430;SDS011;16404;49.902;10.074;2023-05-07T12:28:04;4.80;;;4.28;;
29430;SDS011;16404;49.902;10.074;2023-05-07T12:30:50;5.53;;;4.45;;
29430;SDS011;16404;49.902;10.074;2023-05-07T12:33:35;5.30;;;4.20;;
29430;SDS011;16404;49.902;10.074;2023-05-07T12:36:20;4.40;;;3.83;;
29430;SDS011;16404;49.902;10.074;2023-05-07T12:39:05;4.97;;;4.47;;
29430;SDS011;16404;49.902;10.074;2023-05-07T12:41:55;5.00;;;3.95;;
29430;SDS011;16404;49.902;10.074;2023-05-07T12:44:45;6.45;;;3.92;;
29430;SDS011;16404;49.902;10.074;2023-05-07T12:47:30;5.57;;;4.18;;
29430;SDS011;16404;49.902;10.074;2023-05-07T12:50:15;4.85;;;3.92;;
29430;SDS011;16404;49.902;10.074;2023-05-07T12:53:00;4.35;;;3.70;;
29430;SDS011;16404;49.902;10.074;2023-05-07T12:55:50;6.05;;;3.97;;
29430;SDS011;16404;49.902;10.074;2023-05-07T12:58:39;4.68;;;4.18;;
29430;SDS011;16404;49.902;10.074;2023-05-07T13:04:12;4.93;;;4.05;;
29430;SDS011;16404;49.902;10.074;2023-05-07T13:06:57;7.63;;;4.10;;
29430;SDS011;16404;49.902;10.074;2023-05-07T13:09:42;4.93;;;4.10;;
29430;SDS011;16404;49.902;10.074;2023-05-07T13:12:27;5.85;;;4.00;;
29430;SDS011;16404;49.902;10.074;2023-05-07T13:15:11;4.97;;;4.22;;
29430;SDS011;16404;49.902;10.074;2023-05-07T13:17:56;5.43;;;3.40;;
29430;SDS011;16404;49.902;10.074;2023-05-07T13:20:40;5.00;;;3.80;;
29430;SDS011;16404;49.902;10.074;2023-05-07T13:23:25;4.03;;;3.63;;
29430;SDS011;16404;49.902;10.074;2023-05-07T13:26:11;5.38;;;4.22;;
29430;SDS011;16404;49.902;10.074;2023-05-07T13:28:55;4.65;;;4.00;;
29430;SDS011;16404;49.902;10.074;2023-05-07T13:31:40;3.88;;;3.47;;
29430;SDS011;16404;49.902;10.074;2023-05-07T13:34:27;4.22;;;3.80;;
29430;SDS011;16404;49.902;10.074;2023-05-07T13:37:12;4.30;;;3.90;;
29430;SDS011;16404;49.902;10.074;2023-05-07T13:39:56;4.00;;;3.60;;
29430;SDS011;16404;49.902;10.074;2023-05-07T13:42:41;7.60;;;3.50;;
29430;SDS011;16404;49.902;10.074;2023-05-07T13:45:26;4.03;;;3.67;;
29430;SDS011;16404;49.902;10.074;2023-05-07T13:48:13;4.10;;;3.65;;
29430;SDS011;16404;49.902;10.074;2023-05-07T13:50:57;6.22;;;4.07;;
29430;SDS011;16404;49.902;10.074;2023-05-07T13:53:42;6.03;;;3.65;;
29430;SDS011;16404;49.902;10.074;2023-05-07T13:56:27;4.75;;;3.65;;
29430;SDS011;16404;49.902;10.074;2023-05-07T14:01:58;5.90;;;3.83;;
29430;SDS011;16404;49.902;10.074;2023-05-07T14:04:42;5.57;;;3.90;;
29430;SDS011;16404;49.902;10.074;2023-05-07T14:07:27;4.82;;;3.38;;
29430;SDS011;16404;49.902;10.074;2023-05-07T14:10:11;4.57;;;4.18;;
29430;SDS011;16404;49.902;10.074;2023-05-07T14:15:41;4.25;;;3.85;;
29430;SDS011;16404;49.902;10.074;2023-05-07T14:18:29;4.75;;;3.75;;
29430;SDS011;16404;49.902;10.074;2023-05-07T14:21:14;7.72;;;4.00;;
29430;SDS011;16404;49.902;10.074;2023-05-07T14:23:59;6.68;;;3.70;;
29430;SDS011;16404;49.902;10.074;2023-05-07T14:26:43;5.80;;;4.00;;
29430;SDS011;16404;49.902;10.074;2023-05-07T14:29:29;5.97;;;3.60;;
29430;SDS011;16404;49.902;10.074;2023-05-07T14:32:13;3.97;;;3.58;;
29430;SDS011;16404;49.902;10.074;2023-05-07T14:34:58;4.10;;;3.60;;
29430;SDS011;16404;49.902;10.074;2023-05-07T14:37:43;4.30;;;3.60;;
29430;SDS011;16404;49.902;10.074;2023-05-07T14:40:27;6.18;;;3.55;;
29430;SDS011;16404;49.902;10.074;2023-05-07T14:43:12;3.50;;;2.85;;
29430;SDS011;16404;49.902;10.074;2023-05-07T14:45:57;4.97;;;3.58;;
29430;SDS011;16404;49.902;10.074;2023-05-07T14:48:41;7.07;;;3.50;;
29430;SDS011;16404;49.902;10.074;2023-05-07T14:51:26;5.50;;;3.17;;
29430;SDS011;16404;49.902;10.074;2023-05-07T14:54:12;3.72;;;3.20;;
29430;SDS011;16404;49.902;10.074;2023-05-07T14:56:57;3.50;;;3.20;;
29430;SDS011;16404;49.902;10.074;2023-05-07T14:59:42;3.83;;;3.40;;
29430;SDS011;16404;49.902;10.074;2023-05-07T15:02:27;4.75;;;3.20;;
29430;SDS011;16404;49.902;10.074;2023-05-07T15:05:11;4.53;;;3.30;;
29430;SDS011;16404;49.902;10.074;2023-05-07T15:07:57;5.03;;;3.20;;
29430;SDS011;16404;49.902;10.074;2023-05-07T15:10:41;4.95;;;3.28;;
29430;SDS011;16404;49.902;10.074;2023-05-07T15:13:26;4.50;;;3.58;;
29430;SDS011;16404;49.902;10.074;2023-05-07T15:16:11;7.57;;;3.10;;
29430;SDS011;16404;49.902;10.074;2023-05-07T15:18:55;4.28;;;3.17;;
29430;SDS011;16404;49.902;10.074;2023-05-07T15:21:40;3.80;;;3.17;;
29430;SDS011;16404;49.902;10.074;2023-05-07T15:24:24;5.60;;;3.08;;
29430;SDS011;16404;49.902;10.074;2023-05-07T15:27:09;3.83;;;3.33;;
29430;SDS011;16404;49.902;10.074;2023-05-07T15:29:54;6.32;;;3.10;;
29430;SDS011;16404;49.902;10.074;2023-05-07T15:32:38;6.30;;;3.25;;
29430;SDS011;16404;49.902;10.074;2023-05-07T15:35:24;4.53;;;3.10;;
29430;SDS011;16404;49.902;10.074;2023-05-07T15:40:53;6.03;;;3.38;;
29430;SDS011;16404;49.902;10.074;2023-05-07T15:46:27;3.90;;;3.40;;
29430;SDS011;16404;49.902;10.074;2023-05-07T15:49:12;3.63;;;3.22;;
29430;SDS011;16404;49.902;10.074;2023-05-07T15:51:56;14.18;;;9.70;;
29430;SDS011;16404;49.902;10.074;2023-05-07T15:54:41;4.78;;;3.78;;
29430;SDS011;16404;49.902;10.074;2023-05-07T15:57:25;3.97;;;3.45;;
29430;SDS011;16404;49.902;10.074;2023-05-07T16:00:10;3.72;;;3.40;;
29430;SDS011;16404;49.902;10.074;2023-05-07T16:02:58;7.47;;;4.63;;
29430;SDS011;16404;49.902;10.074;2023-05-07T16:05:43;4.82;;;3.75;;
29430;SDS011;16404;49.902;10.074;2023-05-07T16:08:28;5.95;;;3.50;;
29430;SDS011;16404;49.902;10.074;2023-05-07T16:11:13;6.28;;;3.40;;
29430;SDS011;16404;49.902;10.074;2023-05-07T16:13:58;5.28;;;3.70;;
29430;SDS011;16404;49.902;10.074;2023-05-07T16:16:43;5.60;;;3.30;;
29430;SDS011;16404;49.902;10.074;2023-05-07T16:19:28;3.58;;;3.20;;
29430;SDS011;16404;49.902;10.074;2023-05-07T16:22:12;4.65;;;3.40;;
29430;SDS011;16404;49.902;10.074;2023-05-07T16:24:57;4.00;;;3.50;;
29430;SDS011;16404;49.902;10.074;2023-05-07T16:27:42;4.00;;;3.25;;
29430;SDS011;16404;49.902;10.074;2023-05-07T16:30:26;4.25;;;3.53;;
29430;SDS011;16404;49.902;10.074;2023-05-07T16:33:11;5.03;;;4.15;;
29430;SDS011;16404;49.902;10.074;2023-05-07T16:35:55;4.38;;;3.33;;
29430;SDS011;16404;49.902;10.074;2023-05-07T16:38:40;4.20;;;3.22;;
29430;SDS011;16404;49.902;10.074;2023-05-07T16:41:24;5.15;;;3.45;;
29430;SDS011;16404;49.902;10.074;2023-05-07T16:44:09;4.60;;;3.28;;
29430;SDS011;16404;49.902;10.074;2023-05-07T16:46:54;4.00;;;3.30;;
29430;SDS011;16404;49.902;10.074;2023-05-07T16:49:38;4.00;;;3.40;;
29430;SDS011;16404;49.902;10.074;2023-05-07T16:52:23;5.65;;;3.55;;
29430;SDS011;16404;49.902;10.074;2023-05-07T16:55:07;4.38;;;3.28;;
29430;SDS011;16404;49.902;10.074;2023-05-07T16:57:52;5.93;;;3.38;;
29430;SDS011;16404;49.902;10.074;2023-05-07T17:00:37;4.28;;;3.10;;
29430;SDS011;16404;49.902;10.074;2023-05-07T17:03:22;5.00;;;3.13;;
29430;SDS011;16404;49.902;10.074;2023-05-07T17:06:07;5.97;;;3.25;;
29430;SDS011;16404;49.902;10.074;2023-05-07T17:08:56;3.30;;;3.00;;